Lorton, Nebraska
Current Conditions -  °F | °C
As of 12:35 AM on Monday 24 Nov 2014 (Local Time) from KAFK Reporting Station
Clear Clear  
Wind Chill: 19°   Ceiling: Unl
Heat Index: 32°   Visibility: 10mi
Dew Point: 19°   Wind: 23mph
Humidity: 60%   Direction: 330°NNW
Pressure: 29.53"   Gusts: 35mph
Location:  40.6°N, 96.02°W
Report Text: KAFK 240635Z AUTO 33020G30KT 10SM CLR 00/M07 A2953 RMK AO2 T00001070
Loading
Personal Weather Stations






























Interactive Weather Map New forecast layout! Learn more

10-Day Weather Forecast

Advertisements
Track Severe Weather on mobile